sensor_id;sensor_type;location;lat;lon;timestamp;P1;durP1;ratioP1;P2;durP2;ratioP2
34828;SDS011;21042;47.620;12.188;2022-10-17T00:00:30;5.88;;;3.08;;
34828;SDS011;21042;47.620;12.188;2022-10-17T00:02:57;6.80;;;3.22;;
34828;SDS011;21042;47.620;12.188;2022-10-17T00:05:24;8.10;;;2.95;;
34828;SDS011;21042;47.620;12.188;2022-10-17T00:07:51;3.65;;;2.58;;
34828;SDS011;21042;47.620;12.188;2022-10-17T00:12:45;5.35;;;3.15;;
34828;SDS011;21042;47.620;12.188;2022-10-17T00:15:13;6.68;;;3.20;;
34828;SDS011;21042;47.620;12.188;2022-10-17T00:17:42;7.93;;;3.22;;
34828;SDS011;21042;47.620;12.188;2022-10-17T00:20:10;4.53;;;2.38;;
34828;SDS011;21042;47.620;12.188;2022-10-17T00:22:37;8.20;;;2.63;;
34828;SDS011;21042;47.620;12.188;2022-10-17T00:25:04;9.10;;;3.45;;
34828;SDS011;21042;47.620;12.188;2022-10-17T00:27:33;6.07;;;3.00;;
34828;SDS011;21042;47.620;12.188;2022-10-17T00:30:04;15.07;;;3.28;;
34828;SDS011;21042;47.620;12.188;2022-10-17T00:32:35;13.75;;;3.40;;
34828;SDS011;21042;47.620;12.188;2022-10-17T00:37:29;4.47;;;3.15;;
34828;SDS011;21042;47.620;12.188;2022-10-17T00:39:57;6.03;;;3.05;;
34828;SDS011;21042;47.620;12.188;2022-10-17T00:47:30;9.02;;;3.65;;
34828;SDS011;21042;47.620;12.188;2022-10-17T00:50:00;6.18;;;3.35;;
34828;SDS011;21042;47.620;12.188;2022-10-17T00:52:33;6.50;;;3.30;;
34828;SDS011;21042;47.620;12.188;2022-10-17T00:55:02;8.55;;;3.22;;
34828;SDS011;21042;47.620;12.188;2022-10-17T00:57:41;6.40;;;3.03;;
34828;SDS011;21042;47.620;12.188;2022-10-17T01:00:10;5.22;;;3.40;;
34828;SDS011;21042;47.620;12.188;2022-10-17T01:02:39;12.32;;;3.60;;
34828;SDS011;21042;47.620;12.188;2022-10-17T01:05:06;7.05;;;3.30;;
34828;SDS011;21042;47.620;12.188;2022-10-17T01:07:34;6.55;;;3.42;;
34828;SDS011;21042;47.620;12.188;2022-10-17T01:10:03;7.40;;;3.35;;
34828;SDS011;21042;47.620;12.188;2022-10-17T01:23:56;8.32;;;3.17;;
34828;SDS011;21042;47.620;12.188;2022-10-17T01:26:52;10.63;;;3.15;;
34828;SDS011;21042;47.620;12.188;2022-10-17T01:37:38;4.13;;;2.45;;
34828;SDS011;21042;47.620;12.188;2022-10-17T01:40:36;8.25;;;3.05;;
34828;SDS011;21042;47.620;12.188;2022-10-17T01:43:14;9.57;;;2.97;;
34828;SDS011;21042;47.620;12.188;2022-10-17T01:45:48;8.75;;;2.95;;
34828;SDS011;21042;47.620;12.188;2022-10-17T01:48:20;5.55;;;3.20;;
34828;SDS011;21042;47.620;12.188;2022-10-17T01:50:53;7.53;;;3.05;;
34828;SDS011;21042;47.620;12.188;2022-10-17T01:53:27;4.88;;;2.88;;
34828;SDS011;21042;47.620;12.188;2022-10-17T01:55:59;7.30;;;3.00;;
34828;SDS011;21042;47.620;12.188;2022-10-17T01:58:29;6.18;;;2.70;;
34828;SDS011;21042;47.620;12.188;2022-10-17T02:01:00;4.47;;;2.95;;
34828;SDS011;21042;47.620;12.188;2022-10-17T02:03:30;5.95;;;3.13;;
34828;SDS011;21042;47.620;12.188;2022-10-17T02:05:59;6.68;;;3.20;;
34828;SDS011;21042;47.620;12.188;2022-10-17T02:08:27;5.45;;;2.85;;
34828;SDS011;21042;47.620;12.188;2022-10-17T02:11:18;6.07;;;3.15;;
34828;SDS011;21042;47.620;12.188;2022-10-17T02:16:50;6.95;;;3.28;;
34828;SDS011;21042;47.620;12.188;2022-10-17T02:22:10;6.15;;;3.20;;
34828;SDS011;21042;47.620;12.188;2022-10-17T02:27:47;5.65;;;2.97;;
34828;SDS011;21042;47.620;12.188;2022-10-17T02:35:59;6.45;;;3.30;;
34828;SDS011;21042;47.620;12.188;2022-10-17T02:38:30;9.63;;;3.47;;
34828;SDS011;21042;47.620;12.188;2022-10-17T02:40:59;6.53;;;3.33;;
34828;SDS011;21042;47.620;12.188;2022-10-17T02:43:28;5.47;;;3.50;;
34828;SDS011;21042;47.620;12.188;2022-10-17T02:45:56;8.25;;;3.58;;
34828;SDS011;21042;47.620;12.188;2022-10-17T02:53:30;8.45;;;3.83;;
34828;SDS011;21042;47.620;12.188;2022-10-17T02:56:03;7.70;;;3.90;;
34828;SDS011;21042;47.620;12.188;2022-10-17T02:58:36;5.32;;;3.58;;
34828;SDS011;21042;47.620;12.188;2022-10-17T03:01:04;5.20;;;3.10;;
34828;SDS011;21042;47.620;12.188;2022-10-17T03:03:32;4.78;;;3.10;;
34828;SDS011;21042;47.620;12.188;2022-10-17T03:06:00;5.80;;;3.17;;
34828;SDS011;21042;47.620;12.188;2022-10-17T03:08:27;6.38;;;3.58;;
34828;SDS011;21042;47.620;12.188;2022-10-17T03:10:54;8.02;;;3.58;;
34828;SDS011;21042;47.620;12.188;2022-10-17T03:15:49;10.15;;;3.60;;
34828;SDS011;21042;47.620;12.188;2022-10-17T03:18:16;8.00;;;3.45;;
34828;SDS011;21042;47.620;12.188;2022-10-17T03:20:44;5.95;;;3.42;;
34828;SDS011;21042;47.620;12.188;2022-10-17T03:23:11;11.27;;;3.60;;
34828;SDS011;21042;47.620;12.188;2022-10-17T03:28:05;5.88;;;3.30;;
34828;SDS011;21042;47.620;12.188;2022-10-17T03:33:00;5.97;;;3.28;;
34828;SDS011;21042;47.620;12.188;2022-10-17T03:35:27;11.02;;;4.10;;
34828;SDS011;21042;47.620;12.188;2022-10-17T03:37:54;6.95;;;3.00;;
34828;SDS011;21042;47.620;12.188;2022-10-17T03:40:24;9.32;;;3.40;;
34828;SDS011;21042;47.620;12.188;2022-10-17T03:45:18;6.70;;;3.25;;
34828;SDS011;21042;47.620;12.188;2022-10-17T03:47:45;7.22;;;3.45;;
34828;SDS011;21042;47.620;12.188;2022-10-17T03:50:13;6.57;;;3.50;;
34828;SDS011;21042;47.620;12.188;2022-10-17T03:52:44;8.18;;;3.20;;
34828;SDS011;21042;47.620;12.188;2022-10-17T03:55:12;8.30;;;3.40;;
34828;SDS011;21042;47.620;12.188;2022-10-17T03:57:40;6.85;;;3.20;;
34828;SDS011;21042;47.620;12.188;2022-10-17T04:00:11;10.65;;;3.42;;
34828;SDS011;21042;47.620;12.188;2022-10-17T04:02:41;5.50;;;3.30;;
34828;SDS011;21042;47.620;12.188;2022-10-17T04:05:15;7.20;;;3.00;;
34828;SDS011;21042;47.620;12.188;2022-10-17T04:07:42;13.55;;;3.97;;
34828;SDS011;21042;47.620;12.188;2022-10-17T04:10:10;7.00;;;3.42;;
34828;SDS011;21042;47.620;12.188;2022-10-17T04:12:38;5.72;;;3.40;;
34828;SDS011;21042;47.620;12.188;2022-10-17T04:15:05;6.70;;;3.50;;
34828;SDS011;21042;47.620;12.188;2022-10-17T04:17:33;9.85;;;3.50;;
34828;SDS011;21042;47.620;12.188;2022-10-17T04:20:04;6.68;;;3.38;;
34828;SDS011;21042;47.620;12.188;2022-10-17T04:24:59;4.55;;;3.00;;
34828;SDS011;21042;47.620;12.188;2022-10-17T04:27:31;7.93;;;3.28;;
34828;SDS011;21042;47.620;12.188;2022-10-17T04:29:58;7.32;;;3.22;;
34828;SDS011;21042;47.620;12.188;2022-10-17T04:32:25;4.78;;;3.13;;
34828;SDS011;21042;47.620;12.188;2022-10-17T04:35:15;6.68;;;3.40;;
34828;SDS011;21042;47.620;12.188;2022-10-17T04:37:46;7.22;;;3.80;;
34828;SDS011;21042;47.620;12.188;2022-10-17T04:40:16;10.75;;;4.47;;
34828;SDS011;21042;47.620;12.188;2022-10-17T04:42:43;19.13;;;4.30;;
34828;SDS011;21042;47.620;12.188;2022-10-17T04:45:13;7.35;;;3.50;;
34828;SDS011;21042;47.620;12.188;2022-10-17T04:47:41;8.73;;;3.42;;
34828;SDS011;21042;47.620;12.188;2022-10-17T04:50:08;7.60;;;3.58;;
34828;SDS011;21042;47.620;12.188;2022-10-17T04:52:35;5.78;;;3.20;;
34828;SDS011;21042;47.620;12.188;2022-10-17T04:55:06;6.97;;;3.50;;
34828;SDS011;21042;47.620;12.188;2022-10-17T04:57:34;6.80;;;3.10;;
34828;SDS011;21042;47.620;12.188;2022-10-17T05:00:08;5.88;;;3.33;;
34828;SDS011;21042;47.620;12.188;2022-10-17T05:03:04;10.27;;;3.17;;
34828;SDS011;21042;47.620;12.188;2022-10-17T05:05:31;5.32;;;3.00;;
34828;SDS011;21042;47.620;12.188;2022-10-17T05:08:01;5.07;;;2.90;;
34828;SDS011;21042;47.620;12.188;2022-10-17T05:10:34;6.93;;;3.63;;
34828;SDS011;21042;47.620;12.188;2022-10-17T05:13:03;4.88;;;2.90;;
34828;SDS011;21042;47.620;12.188;2022-10-17T05:15:32;7.38;;;3.17;;
34828;SDS011;21042;47.620;12.188;2022-10-17T05:18:00;6.53;;;3.13;;
34828;SDS011;21042;47.620;12.188;2022-10-17T05:20:28;7.35;;;3.00;;
34828;SDS011;21042;47.620;12.188;2022-10-17T05:22:55;7.40;;;3.67;;
34828;SDS011;21042;47.620;12.188;2022-10-17T05:25:29;8.13;;;3.50;;
34828;SDS011;21042;47.620;12.188;2022-10-17T05:27:55;5.70;;;3.03;;
34828;SDS011;21042;47.620;12.188;2022-10-17T05:30:22;9.00;;;2.85;;
34828;SDS011;21042;47.620;12.188;2022-10-17T05:32:54;7.47;;;3.83;;
34828;SDS011;21042;47.620;12.188;2022-10-17T05:35:21;6.03;;;3.38;;
34828;SDS011;21042;47.620;12.188;2022-10-17T05:37:48;8.20;;;3.13;;
34828;SDS011;21042;47.620;12.188;2022-10-17T05:40:16;8.45;;;3.70;;
34828;SDS011;21042;47.620;12.188;2022-10-17T05:42:46;13.10;;;3.90;;
34828;SDS011;21042;47.620;12.188;2022-10-17T05:45:16;6.10;;;3.15;;
34828;SDS011;21042;47.620;12.188;2022-10-17T05:47:44;6.95;;;3.25;;
34828;SDS011;21042;47.620;12.188;2022-10-17T05:50:11;13.65;;;4.03;;
34828;SDS011;21042;47.620;12.188;2022-10-17T05:52:59;9.02;;;3.65;;
34828;SDS011;21042;47.620;12.188;2022-10-17T05:55:26;7.05;;;3.72;;
34828;SDS011;21042;47.620;12.188;2022-10-17T05:57:53;6.80;;;3.67;;
34828;SDS011;21042;47.620;12.188;2022-10-17T06:00:22;7.15;;;3.60;;
34828;SDS011;21042;47.620;12.188;2022-10-17T06:02:55;9.50;;;4.28;;
34828;SDS011;21042;47.620;12.188;2022-10-17T06:05:22;7.93;;;3.67;;
34828;SDS011;21042;47.620;12.188;2022-10-17T06:07:49;10.75;;;3.83;;
34828;SDS011;21042;47.620;12.188;2022-10-17T06:10:18;9.35;;;3.30;;
34828;SDS011;21042;47.620;12.188;2022-10-17T06:12:46;11.20;;;3.90;;
34828;SDS011;21042;47.620;12.188;2022-10-17T06:15:13;5.72;;;3.47;;
34828;SDS011;21042;47.620;12.188;2022-10-17T06:17:44;6.90;;;3.75;;
34828;SDS011;21042;47.620;12.188;2022-10-17T06:20:12;5.95;;;3.50;;
34828;SDS011;21042;47.620;12.188;2022-10-17T06:22:39;7.18;;;3.67;;
34828;SDS011;21042;47.620;12.188;2022-10-17T06:25:12;9.43;;;4.30;;
34828;SDS011;21042;47.620;12.188;2022-10-17T06:27:39;11.43;;;3.88;;
34828;SDS011;21042;47.620;12.188;2022-10-17T06:30:06;10.55;;;3.70;;
34828;SDS011;21042;47.620;12.188;2022-10-17T06:32:33;10.73;;;3.83;;
34828;SDS011;21042;47.620;12.188;2022-10-17T06:35:00;8.30;;;3.83;;
34828;SDS011;21042;47.620;12.188;2022-10-17T06:37:31;7.50;;;3.78;;
34828;SDS011;21042;47.620;12.188;2022-10-17T06:40:04;9.35;;;3.35;;
34828;SDS011;21042;47.620;12.188;2022-10-17T06:42:35;10.40;;;4.60;;
34828;SDS011;21042;47.620;12.188;2022-10-17T06:45:20;8.90;;;4.07;;
34828;SDS011;21042;47.620;12.188;2022-10-17T06:48:07;12.73;;;3.72;;
34828;SDS011;21042;47.620;12.188;2022-10-17T06:50:53;16.20;;;4.43;;
34828;SDS011;21042;47.620;12.188;2022-10-17T06:53:26;10.23;;;3.35;;
34828;SDS011;21042;47.620;12.188;2022-10-17T06:56:12;9.98;;;3.75;;
34828;SDS011;21042;47.620;12.188;2022-10-17T06:58:56;7.18;;;3.67;;
34828;SDS011;21042;47.620;12.188;2022-10-17T07:01:33;9.00;;;3.72;;
34828;SDS011;21042;47.620;12.188;2022-10-17T07:04:02;6.72;;;3.22;;
34828;SDS011;21042;47.620;12.188;2022-10-17T07:06:29;7.65;;;3.40;;
34828;SDS011;21042;47.620;12.188;2022-10-17T07:09:02;9.43;;;3.75;;
34828;SDS011;21042;47.620;12.188;2022-10-17T07:11:34;7.32;;;3.75;;
34828;SDS011;21042;47.620;12.188;2022-10-17T07:14:01;8.55;;;3.80;;
34828;SDS011;21042;47.620;12.188;2022-10-17T07:16:28;8.75;;;3.40;;
34828;SDS011;21042;47.620;12.188;2022-10-17T07:19:02;19.30;;;3.80;;
34828;SDS011;21042;47.620;12.188;2022-10-17T07:21:34;5.93;;;3.90;;
34828;SDS011;21042;47.620;12.188;2022-10-17T07:24:05;9.32;;;3.78;;
34828;SDS011;21042;47.620;12.188;2022-10-17T07:26:32;7.72;;;3.28;;
34828;SDS011;21042;47.620;12.188;2022-10-17T07:29:00;10.00;;;3.75;;
34828;SDS011;21042;47.620;12.188;2022-10-17T07:31:45;11.73;;;3.47;;
34828;SDS011;21042;47.620;12.188;2022-10-17T07:34:14;9.82;;;3.17;;
34828;SDS011;21042;47.620;12.188;2022-10-17T07:36:42;6.00;;;3.25;;
34828;SDS011;21042;47.620;12.188;2022-10-17T07:39:11;7.57;;;3.33;;
34828;SDS011;21042;47.620;12.188;2022-10-17T07:41:38;6.20;;;3.38;;
34828;SDS011;21042;47.620;12.188;2022-10-17T07:44:06;7.43;;;3.50;;
34828;SDS011;21042;47.620;12.188;2022-10-17T07:46:39;5.85;;;3.33;;
34828;SDS011;21042;47.620;12.188;2022-10-17T07:49:05;8.00;;;3.17;;
34828;SDS011;21042;47.620;12.188;2022-10-17T07:51:32;10.63;;;3.17;;
34828;SDS011;21042;47.620;12.188;2022-10-17T07:53:59;15.00;;;3.95;;
34828;SDS011;21042;47.620;12.188;2022-10-17T07:56:26;9.20;;;3.25;;
34828;SDS011;21042;47.620;12.188;2022-10-17T07:58:54;7.43;;;3.00;;
34828;SDS011;21042;47.620;12.188;2022-10-17T08:01:27;6.20;;;2.97;;
34828;SDS011;21042;47.620;12.188;2022-10-17T08:03:54;6.88;;;3.50;;
34828;SDS011;21042;47.620;12.188;2022-10-17T08:06:20;8.85;;;3.65;;
34828;SDS011;21042;47.620;12.188;2022-10-17T08:08:47;5.63;;;3.30;;
34828;SDS011;21042;47.620;12.188;2022-10-17T08:11:14;5.47;;;2.58;;
34828;SDS011;21042;47.620;12.188;2022-10-17T08:13:41;7.47;;;3.38;;
34828;SDS011;21042;47.620;12.188;2022-10-17T08:16:08;10.70;;;3.17;;
34828;SDS011;21042;47.620;12.188;2022-10-17T08:18:37;10.95;;;3.10;;
34828;SDS011;21042;47.620;12.188;2022-10-17T08:21:05;7.20;;;3.55;;
34828;SDS011;21042;47.620;12.188;2022-10-17T08:23:34;7.68;;;3.15;;
34828;SDS011;21042;47.620;12.188;2022-10-17T08:26:02;6.70;;;3.08;;
34828;SDS011;21042;47.620;12.188;2022-10-17T08:28:33;7.18;;;3.20;;
34828;SDS011;21042;47.620;12.188;2022-10-17T08:31:02;7.70;;;2.83;;
34828;SDS011;21042;47.620;12.188;2022-10-17T08:33:30;7.93;;;3.10;;
34828;SDS011;21042;47.620;12.188;2022-10-17T08:35:59;6.90;;;2.80;;
34828;SDS011;21042;47.620;12.188;2022-10-17T08:38:29;6.32;;;3.22;;
34828;SDS011;21042;47.620;12.188;2022-10-17T08:44:04;4.45;;;2.83;;
34828;SDS011;21042;47.620;12.188;2022-10-17T08:46:53;7.00;;;3.78;;
34828;SDS011;21042;47.620;12.188;2022-10-17T08:52:01;6.03;;;3.33;;
34828;SDS011;21042;47.620;12.188;2022-10-17T08:54:42;7.30;;;3.95;;
34828;SDS011;21042;47.620;12.188;2022-10-17T08:57:12;6.90;;;3.65;;
34828;SDS011;21042;47.620;12.188;2022-10-17T08:59:41;8.15;;;3.75;;
34828;SDS011;21042;47.620;12.188;2022-10-17T09:02:33;6.93;;;3.05;;
34828;SDS011;21042;47.620;12.188;2022-10-17T09:11:19;4.90;;;3.45;;
34828;SDS011;21042;47.620;12.188;2022-10-17T09:14:28;8.00;;;3.78;;
34828;SDS011;21042;47.620;12.188;2022-10-17T09:17:13;7.65;;;4.05;;
34828;SDS011;21042;47.620;12.188;2022-10-17T09:22:26;6.47;;;3.53;;
34828;SDS011;21042;47.620;12.188;2022-10-17T09:24:58;11.25;;;3.72;;
34828;SDS011;21042;47.620;12.188;2022-10-17T09:30:18;7.78;;;3.78;;
34828;SDS011;21042;47.620;12.188;2022-10-17T09:33:11;7.03;;;4.03;;
34828;SDS011;21042;47.620;12.188;2022-10-17T09:36:12;6.68;;;3.80;;
34828;SDS011;21042;47.620;12.188;2022-10-17T09:39:21;8.98;;;3.42;;
34828;SDS011;21042;47.620;12.188;2022-10-17T09:41:42;10.57;;;5.45;;
34828;SDS011;21042;47.620;12.188;2022-10-17T09:44:29;11.77;;;4.32;;
34828;SDS011;21042;47.620;12.188;2022-10-17T09:49:55;4.90;;;3.35;;
34828;SDS011;21042;47.620;12.188;2022-10-17T09:52:35;7.82;;;3.50;;
34828;SDS011;21042;47.620;12.188;2022-10-17T09:55:14;5.90;;;3.92;;
34828;SDS011;21042;47.620;12.188;2022-10-17T09:57:57;4.70;;;3.45;;
34828;SDS011;21042;47.620;12.188;2022-10-17T10:00:30;5.20;;;3.60;;
34828;SDS011;21042;47.620;12.188;2022-10-17T10:03:09;7.57;;;3.78;;
34828;SDS011;21042;47.620;12.188;2022-10-17T10:05:39;5.93;;;3.97;;
34828;SDS011;21042;47.620;12.188;2022-10-17T10:08:14;6.55;;;3.65;;
34828;SDS011;21042;47.620;12.188;2022-10-17T10:10:43;8.25;;;3.50;;
34828;SDS011;21042;47.620;12.188;2022-10-17T10:15:41;3.92;;;3.10;;
34828;SDS011;21042;47.620;12.188;2022-10-17T10:21:01;19.23;;;4.35;;
34828;SDS011;21042;47.620;12.188;2022-10-17T10:23:42;7.35;;;3.45;;
34828;SDS011;21042;47.620;12.188;2022-10-17T10:26:17;9.13;;;3.90;;
34828;SDS011;21042;47.620;12.188;2022-10-17T10:28:57;4.38;;;2.90;;
34828;SDS011;21042;47.620;12.188;2022-10-17T10:31:35;5.90;;;3.20;;
34828;SDS011;21042;47.620;12.188;2022-10-17T10:34:14;7.13;;;3.35;;
34828;SDS011;21042;47.620;12.188;2022-10-17T10:36:56;8.30;;;3.22;;
34828;SDS011;21042;47.620;12.188;2022-10-17T10:39:31;7.82;;;3.67;;
34828;SDS011;21042;47.620;12.188;2022-10-17T10:45:14;5.57;;;2.92;;
34828;SDS011;21042;47.620;12.188;2022-10-17T10:48:20;7.50;;;3.70;;
34828;SDS011;21042;47.620;12.188;2022-10-17T10:50:51;8.23;;;3.40;;
34828;SDS011;21042;47.620;12.188;2022-10-17T10:53:37;5.75;;;3.47;;
34828;SDS011;21042;47.620;12.188;2022-10-17T10:56:27;4.60;;;2.97;;
34828;SDS011;21042;47.620;12.188;2022-10-17T10:59:15;4.57;;;3.22;;
34828;SDS011;21042;47.620;12.188;2022-10-17T11:01:57;5.65;;;3.35;;
34828;SDS011;21042;47.620;12.188;2022-10-17T11:04:37;5.40;;;3.05;;
34828;SDS011;21042;47.620;12.188;2022-10-17T11:07:17;8.63;;;3.75;;
34828;SDS011;21042;47.620;12.188;2022-10-17T11:10:11;5.50;;;3.10;;
34828;SDS011;21042;47.620;12.188;2022-10-17T11:12:49;5.50;;;2.95;;
34828;SDS011;21042;47.620;12.188;2022-10-17T11:17:59;7.80;;;3.40;;
34828;SDS011;21042;47.620;12.188;2022-10-17T11:20:32;5.72;;;2.95;;
34828;SDS011;21042;47.620;12.188;2022-10-17T11:23:23;5.88;;;3.42;;
34828;SDS011;21042;47.620;12.188;2022-10-17T11:25:56;10.70;;;3.08;;
34828;SDS011;21042;47.620;12.188;2022-10-17T11:28:25;6.40;;;2.97;;
34828;SDS011;21042;47.620;12.188;2022-10-17T11:34:00;4.10;;;3.33;;
34828;SDS011;21042;47.620;12.188;2022-10-17T11:36:33;7.85;;;3.72;;
34828;SDS011;21042;47.620;12.188;2022-10-17T11:39:22;5.88;;;3.20;;
34828;SDS011;21042;47.620;12.188;2022-10-17T11:41:58;6.18;;;3.40;;
34828;SDS011;21042;47.620;12.188;2022-10-17T11:44:35;6.10;;;3.25;;
34828;SDS011;21042;47.620;12.188;2022-10-17T11:49:46;8.55;;;3.60;;
34828;SDS011;21042;47.620;12.188;2022-10-17T11:55:23;9.27;;;3.92;;
34828;SDS011;21042;47.620;12.188;2022-10-17T12:03:22;5.05;;;3.30;;
34828;SDS011;21042;47.620;12.188;2022-10-17T12:14:39;5.70;;;3.47;;
34828;SDS011;21042;47.620;12.188;2022-10-17T12:17:28;6.10;;;3.42;;
34828;SDS011;21042;47.620;12.188;2022-10-17T12:22:47;4.70;;;3.08;;
34828;SDS011;21042;47.620;12.188;2022-10-17T12:25:17;5.10;;;3.53;;
34828;SDS011;21042;47.620;12.188;2022-10-17T12:30:32;6.13;;;3.30;;
34828;SDS011;21042;47.620;12.188;2022-10-17T12:33:04;6.85;;;3.70;;
34828;SDS011;21042;47.620;12.188;2022-10-17T12:38:44;7.13;;;3.92;;
34828;SDS011;21042;47.620;12.188;2022-10-17T12:41:15;8.85;;;3.25;;
34828;SDS011;21042;47.620;12.188;2022-10-17T12:44:44;4.05;;;2.78;;
34828;SDS011;21042;47.620;12.188;2022-10-17T12:47:37;7.03;;;3.17;;
34828;SDS011;21042;47.620;12.188;2022-10-17T12:49:54;6.50;;;3.50;;
34828;SDS011;21042;47.620;12.188;2022-10-17T12:54:59;3.90;;;2.78;;
34828;SDS011;21042;47.620;12.188;2022-10-17T12:57:58;5.15;;;3.13;;
34828;SDS011;21042;47.620;12.188;2022-10-17T13:00:35;5.93;;;3.42;;
34828;SDS011;21042;47.620;12.188;2022-10-17T13:03:32;4.97;;;3.15;;
34828;SDS011;21042;47.620;12.188;2022-10-17T13:06:06;3.83;;;2.60;;
34828;SDS011;21042;47.620;12.188;2022-10-17T13:11:04;6.32;;;3.58;;
34828;SDS011;21042;47.620;12.188;2022-10-17T13:16:26;6.50;;;3.25;;
34828;SDS011;21042;47.620;12.188;2022-10-17T13:18:54;5.35;;;3.05;;
34828;SDS011;21042;47.620;12.188;2022-10-17T13:21:21;5.55;;;3.17;;
34828;SDS011;21042;47.620;12.188;2022-10-17T13:26:20;5.00;;;3.40;;
34828;SDS011;21042;47.620;12.188;2022-10-17T13:31:37;9.55;;;3.58;;
34828;SDS011;21042;47.620;12.188;2022-10-17T13:34:14;5.43;;;3.42;;
34828;SDS011;21042;47.620;12.188;2022-10-17T13:36:42;4.57;;;3.35;;
34828;SDS011;21042;47.620;12.188;2022-10-17T13:39:14;5.22;;;3.25;;
34828;SDS011;21042;47.620;12.188;2022-10-17T13:41:57;8.80;;;3.53;;
34828;SDS011;21042;47.620;12.188;2022-10-17T13:44:25;8.82;;;3.58;;
34828;SDS011;21042;47.620;12.188;2022-10-17T13:46:58;6.88;;;3.33;;
34828;SDS011;21042;47.620;12.188;2022-10-17T13:51:58;5.18;;;3.40;;
34828;SDS011;21042;47.620;12.188;2022-10-17T13:54:35;7.00;;;3.72;;
34828;SDS011;21042;47.620;12.188;2022-10-17T13:57:13;4.68;;;3.35;;
34828;SDS011;21042;47.620;12.188;2022-10-17T13:59:44;5.30;;;3.78;;
34828;SDS011;21042;47.620;12.188;2022-10-17T14:02:15;7.60;;;3.38;;
34828;SDS011;21042;47.620;12.188;2022-10-17T14:04:58;4.50;;;3.05;;
34828;SDS011;21042;47.620;12.188;2022-10-17T14:10:39;8.07;;;3.80;;
34828;SDS011;21042;47.620;12.188;2022-10-17T14:13:26;5.15;;;3.30;;
34828;SDS011;21042;47.620;12.188;2022-10-17T14:16:01;5.75;;;3.78;;
34828;SDS011;21042;47.620;12.188;2022-10-17T14:18:30;5.50;;;3.40;;
34828;SDS011;21042;47.620;12.188;2022-10-17T14:21:02;7.85;;;3.40;;
34828;SDS011;21042;47.620;12.188;2022-10-17T14:23:50;5.07;;;3.35;;
34828;SDS011;21042;47.620;12.188;2022-10-17T14:26:19;5.75;;;3.35;;
34828;SDS011;21042;47.620;12.188;2022-10-17T14:28:49;8.18;;;4.05;;
34828;SDS011;21042;47.620;12.188;2022-10-17T14:31:29;9.02;;;3.60;;
34828;SDS011;21042;47.620;12.188;2022-10-17T14:34:00;5.90;;;3.47;;
34828;SDS011;21042;47.620;12.188;2022-10-17T14:36:36;5.97;;;3.78;;
34828;SDS011;21042;47.620;12.188;2022-10-17T14:39:07;8.93;;;3.63;;
34828;SDS011;21042;47.620;12.188;2022-10-17T14:41:45;9.75;;;3.50;;
34828;SDS011;21042;47.620;12.188;2022-10-17T14:44:24;9.52;;;3.50;;
34828;SDS011;21042;47.620;12.188;2022-10-17T14:46:59;6.53;;;3.28;;
34828;SDS011;21042;47.620;12.188;2022-10-17T14:49:49;6.18;;;3.83;;
34828;SDS011;21042;47.620;12.188;2022-10-17T14:54:45;9.75;;;3.80;;
34828;SDS011;21042;47.620;12.188;2022-10-17T14:57:14;10.38;;;3.70;;
34828;SDS011;21042;47.620;12.188;2022-10-17T14:59:48;6.78;;;3.25;;
34828;SDS011;21042;47.620;12.188;2022-10-17T15:02:21;9.35;;;3.28;;
34828;SDS011;21042;47.620;12.188;2022-10-17T15:04:49;11.00;;;3.10;;
34828;SDS011;21042;47.620;12.188;2022-10-17T15:07:16;5.38;;;2.72;;
34828;SDS011;21042;47.620;12.188;2022-10-17T15:09:45;5.72;;;3.15;;
34828;SDS011;21042;47.620;12.188;2022-10-17T15:12:19;5.43;;;3.20;;
34828;SDS011;21042;47.620;12.188;2022-10-17T15:14:48;6.68;;;3.58;;
34828;SDS011;21042;47.620;12.188;2022-10-17T15:17:17;7.85;;;3.20;;
34828;SDS011;21042;47.620;12.188;2022-10-17T15:19:46;6.20;;;3.40;;
34828;SDS011;21042;47.620;12.188;2022-10-17T15:22:13;6.88;;;3.20;;
34828;SDS011;21042;47.620;12.188;2022-10-17T15:24:41;5.40;;;3.00;;
34828;SDS011;21042;47.620;12.188;2022-10-17T15:27:18;6.53;;;3.08;;
34828;SDS011;21042;47.620;12.188;2022-10-17T15:29:49;7.60;;;3.35;;
34828;SDS011;21042;47.620;12.188;2022-10-17T15:32:17;5.50;;;3.35;;
34828;SDS011;21042;47.620;12.188;2022-10-17T15:34:45;5.85;;;3.10;;
34828;SDS011;21042;47.620;12.188;2022-10-17T15:37:15;4.50;;;3.40;;
34828;SDS011;21042;47.620;12.188;2022-10-17T15:39:48;7.53;;;3.58;;
34828;SDS011;21042;47.620;12.188;2022-10-17T15:42:25;11.60;;;3.55;;
34828;SDS011;21042;47.620;12.188;2022-10-17T15:44:53;7.80;;;3.80;;
34828;SDS011;21042;47.620;12.188;2022-10-17T15:47:21;7.53;;;3.95;;
34828;SDS011;21042;47.620;12.188;2022-10-17T15:49:54;6.22;;;4.22;;
34828;SDS011;21042;47.620;12.188;2022-10-17T15:52:21;11.07;;;5.45;;
34828;SDS011;21042;47.620;12.188;2022-10-17T15:54:49;6.40;;;4.25;;
34828;SDS011;21042;47.620;12.188;2022-10-17T15:57:20;9.68;;;4.32;;
34828;SDS011;21042;47.620;12.188;2022-10-17T15:59:49;10.75;;;4.45;;
34828;SDS011;21042;47.620;12.188;2022-10-17T16:02:17;8.55;;;5.75;;
34828;SDS011;21042;47.620;12.188;2022-10-17T16:04:45;15.15;;;6.28;;
34828;SDS011;21042;47.620;12.188;2022-10-17T16:07:12;8.75;;;4.63;;
34828;SDS011;21042;47.620;12.188;2022-10-17T16:09:39;7.10;;;4.00;;
34828;SDS011;21042;47.620;12.188;2022-10-17T16:12:10;11.43;;;5.07;;
34828;SDS011;21042;47.620;12.188;2022-10-17T16:14:40;9.93;;;4.78;;
34828;SDS011;21042;47.620;12.188;2022-10-17T16:17:13;6.55;;;4.10;;
34828;SDS011;21042;47.620;12.188;2022-10-17T16:19:41;10.75;;;4.18;;
34828;SDS011;21042;47.620;12.188;2022-10-17T16:22:16;11.43;;;3.85;;
34828;SDS011;21042;47.620;12.188;2022-10-17T16:24:46;12.80;;;4.82;;
34828;SDS011;21042;47.620;12.188;2022-10-17T16:27:13;15.20;;;6.38;;
34828;SDS011;21042;47.620;12.188;2022-10-17T16:29:39;16.33;;;6.10;;
34828;SDS011;21042;47.620;12.188;2022-10-17T16:32:07;21.25;;;8.02;;
34828;SDS011;21042;47.620;12.188;2022-10-17T16:34:34;21.10;;;8.02;;
34828;SDS011;21042;47.620;12.188;2022-10-17T16:37:01;24.63;;;8.80;;
34828;SDS011;21042;47.620;12.188;2022-10-17T16:39:28;29.77;;;10.65;;
34828;SDS011;21042;47.620;12.188;2022-10-17T16:41:54;34.20;;;10.07;;
34828;SDS011;21042;47.620;12.188;2022-10-17T16:44:23;27.80;;;9.55;;
34828;SDS011;21042;47.620;12.188;2022-10-17T16:46:50;20.80;;;9.02;;
34828;SDS011;21042;47.620;12.188;2022-10-17T16:49:17;21.58;;;10.10;;
34828;SDS011;21042;47.620;12.188;2022-10-17T16:51:44;34.58;;;13.00;;
34828;SDS011;21042;47.620;12.188;2022-10-17T16:54:10;28.17;;;11.23;;
34828;SDS011;21042;47.620;12.188;2022-10-17T16:56:37;20.30;;;8.98;;
34828;SDS011;21042;47.620;12.188;2022-10-17T16:59:04;18.05;;;8.63;;
34828;SDS011;21042;47.620;12.188;2022-10-17T17:01:31;22.58;;;8.95;;
34828;SDS011;21042;47.620;12.188;2022-10-17T17:03:57;24.50;;;9.00;;
34828;SDS011;21042;47.620;12.188;2022-10-17T17:06:25;32.35;;;13.57;;
34828;SDS011;21042;47.620;12.188;2022-10-17T17:08:54;18.40;;;8.23;;
34828;SDS011;21042;47.620;12.188;2022-10-17T17:11:21;12.88;;;6.57;;
34828;SDS011;21042;47.620;12.188;2022-10-17T17:13:49;9.95;;;6.13;;
34828;SDS011;21042;47.620;12.188;2022-10-17T17:16:18;11.88;;;5.38;;
34828;SDS011;21042;47.620;12.188;2022-10-17T17:18:47;5.93;;;4.25;;
34828;SDS011;21042;47.620;12.188;2022-10-17T17:21:16;9.10;;;4.05;;
34828;SDS011;21042;47.620;12.188;2022-10-17T17:23:43;8.27;;;4.47;;
34828;SDS011;21042;47.620;12.188;2022-10-17T17:26:11;8.27;;;4.55;;